sensor_id;sensor_type;location;lat;lon;timestamp;temperature;humidity
8463;DHT22;4268;52.506;13.462;2024-02-15T00:00:32;9.50;99.90
8463;DHT22;4268;52.506;13.462;2024-02-15T00:02:59;9.40;99.90
8463;DHT22;4268;52.506;13.462;2024-02-15T00:05:24;9.40;99.90
8463;DHT22;4268;52.506;13.462;2024-02-15T00:07:50;9.40;99.90
8463;DHT22;4268;52.506;13.462;2024-02-15T00:10:15;9.50;99.90
8463;DHT22;4268;52.506;13.462;2024-02-15T00:12:41;9.40;99.90
8463;DHT22;4268;52.506;13.462;2024-02-15T00:15:07;9.50;99.90
8463;DHT22;4268;52.506;13.462;2024-02-15T00:17:33;9.40;99.90
8463;DHT22;4268;52.506;13.462;2024-02-15T00:20:02;9.40;99.90
8463;DHT22;4268;52.506;13.462;2024-02-15T00:22:29;9.40;99.90
8463;DHT22;4268;52.506;13.462;2024-02-15T00:24:55;9.40;99.90
8463;DHT22;4268;52.506;13.462;2024-02-15T00:27:20;9.40;99.90
8463;DHT22;4268;52.506;13.462;2024-02-15T00:29:46;9.40;99.90
8463;DHT22;4268;52.506;13.462;2024-02-15T00:32:12;9.40;99.90
8463;DHT22;4268;52.506;13.462;2024-02-15T00:34:37;9.40;99.90
8463;DHT22;4268;52.506;13.462;2024-02-15T00:37:04;9.40;99.90
8463;DHT22;4268;52.506;13.462;2024-02-15T00:39:30;9.40;99.90
8463;DHT22;4268;52.506;13.462;2024-02-15T00:41:57;9.40;99.90
8463;DHT22;4268;52.506;13.462;2024-02-15T00:44:22;9.30;99.90
8463;DHT22;4268;52.506;13.462;2024-02-15T00:46:48;9.40;99.90
8463;DHT22;4268;52.506;13.462;2024-02-15T00:49:13;9.40;99.90
8463;DHT22;4268;52.506;13.462;2024-02-15T00:51:39;9.40;99.90
8463;DHT22;4268;52.506;13.462;2024-02-15T00:54:04;9.40;99.90
8463;DHT22;4268;52.506;13.462;2024-02-15T00:56:30;9.40;99.90
8463;DHT22;4268;52.506;13.462;2024-02-15T00:58:58;9.40;99.90
8463;DHT22;4268;52.506;13.462;2024-02-15T01:01:24;9.40;99.90
8463;DHT22;4268;52.506;13.462;2024-02-15T01:03:49;9.40;99.90
8463;DHT22;4268;52.506;13.462;2024-02-15T01:06:15;9.40;99.90
8463;DHT22;4268;52.506;13.462;2024-02-15T01:08:41;9.40;99.90
8463;DHT22;4268;52.506;13.462;2024-02-15T01:11:07;9.40;99.90
8463;DHT22;4268;52.506;13.462;2024-02-15T01:13:33;9.40;99.90
8463;DHT22;4268;52.506;13.462;2024-02-15T01:15:58;9.40;99.90
8463;DHT22;4268;52.506;13.462;2024-02-15T01:18:24;9.40;99.90
8463;DHT22;4268;52.506;13.462;2024-02-15T01:20:49;9.40;99.90
8463;DHT22;4268;52.506;13.462;2024-02-15T01:23:15;9.40;99.90
8463;DHT22;4268;52.506;13.462;2024-02-15T01:25:40;9.40;99.90
8463;DHT22;4268;52.506;13.462;2024-02-15T01:28:06;9.40;99.90
8463;DHT22;4268;52.506;13.462;2024-02-15T01:30:31;9.40;99.90
8463;DHT22;4268;52.506;13.462;2024-02-15T01:32:57;9.40;99.90
8463;DHT22;4268;52.506;13.462;2024-02-15T01:35:23;9.30;99.90
8463;DHT22;4268;52.506;13.462;2024-02-15T01:37:49;9.40;99.90
8463;DHT22;4268;52.506;13.462;2024-02-15T01:40:16;9.40;99.90
8463;DHT22;4268;52.506;13.462;2024-02-15T01:42:43;9.50;99.90
8463;DHT22;4268;52.506;13.462;2024-02-15T01:45:09;9.50;99.90
8463;DHT22;4268;52.506;13.462;2024-02-15T01:47:37;9.50;99.90
8463;DHT22;4268;52.506;13.462;2024-02-15T01:50:03;9.50;99.90
8463;DHT22;4268;52.506;13.462;2024-02-15T01:52:28;9.50;99.90
8463;DHT22;4268;52.506;13.462;2024-02-15T01:54:55;9.50;99.90
8463;DHT22;4268;52.506;13.462;2024-02-15T01:57:22;9.50;99.90
8463;DHT22;4268;52.506;13.462;2024-02-15T01:59:53;9.50;99.90
8463;DHT22;4268;52.506;13.462;2024-02-15T02:02:19;9.50;99.90
8463;DHT22;4268;52.506;13.462;2024-02-15T02:04:46;9.50;99.90
8463;DHT22;4268;52.506;13.462;2024-02-15T02:07:11;9.50;99.90
8463;DHT22;4268;52.506;13.462;2024-02-15T02:09:37;9.50;99.90
8463;DHT22;4268;52.506;13.462;2024-02-15T02:12:02;9.50;99.90
8463;DHT22;4268;52.506;13.462;2024-02-15T02:14:29;9.50;99.90
8463;DHT22;4268;52.506;13.462;2024-02-15T02:16:54;9.50;99.90
8463;DHT22;4268;52.506;13.462;2024-02-15T02:19:20;9.60;99.90
8463;DHT22;4268;52.506;13.462;2024-02-15T02:21:46;9.50;99.90
8463;DHT22;4268;52.506;13.462;2024-02-15T02:24:21;9.50;99.90
8463;DHT22;4268;52.506;13.462;2024-02-15T02:26:47;9.50;99.90
8463;DHT22;4268;52.506;13.462;2024-02-15T02:29:15;9.50;99.90
8463;DHT22;4268;52.506;13.462;2024-02-15T02:31:40;9.60;99.90
8463;DHT22;4268;52.506;13.462;2024-02-15T02:34:08;9.50;99.90
8463;DHT22;4268;52.506;13.462;2024-02-15T02:36:34;9.60;99.90
8463;DHT22;4268;52.506;13.462;2024-02-15T02:38:59;9.60;99.90
8463;DHT22;4268;52.506;13.462;2024-02-15T02:41:27;9.60;99.90
8463;DHT22;4268;52.506;13.462;2024-02-15T02:43:54;9.60;99.90
8463;DHT22;4268;52.506;13.462;2024-02-15T02:46:20;9.60;99.90
8463;DHT22;4268;52.506;13.462;2024-02-15T02:48:46;9.60;99.90
8463;DHT22;4268;52.506;13.462;2024-02-15T02:51:12;9.60;99.90
8463;DHT22;4268;52.506;13.462;2024-02-15T02:53:37;9.60;99.90
8463;DHT22;4268;52.506;13.462;2024-02-15T02:56:03;9.60;99.90
8463;DHT22;4268;52.506;13.462;2024-02-15T02:58:29;9.60;99.90
8463;DHT22;4268;52.506;13.462;2024-02-15T03:00:55;9.60;99.90
8463;DHT22;4268;52.506;13.462;2024-02-15T03:03:21;9.60;99.90
8463;DHT22;4268;52.506;13.462;2024-02-15T03:05:48;9.60;99.90
8463;DHT22;4268;52.506;13.462;2024-02-15T03:08:14;9.60;99.90
8463;DHT22;4268;52.506;13.462;2024-02-15T03:10:39;9.60;99.90
8463;DHT22;4268;52.506;13.462;2024-02-15T03:13:06;9.60;99.90
8463;DHT22;4268;52.506;13.462;2024-02-15T03:15:33;9.60;99.90
8463;DHT22;4268;52.506;13.462;2024-02-15T03:17:59;9.60;99.90
8463;DHT22;4268;52.506;13.462;2024-02-15T03:20:25;9.60;99.90
8463;DHT22;4268;52.506;13.462;2024-02-15T03:22:55;9.70;99.90
8463;DHT22;4268;52.506;13.462;2024-02-15T03:25:20;9.60;99.90
8463;DHT22;4268;52.506;13.462;2024-02-15T03:27:49;9.70;99.90
8463;DHT22;4268;52.506;13.462;2024-02-15T03:30:17;9.60;99.90
8463;DHT22;4268;52.506;13.462;2024-02-15T03:32:43;9.60;99.90
8463;DHT22;4268;52.506;13.462;2024-02-15T03:35:08;9.60;99.90
8463;DHT22;4268;52.506;13.462;2024-02-15T03:37:34;9.70;99.90
8463;DHT22;4268;52.506;13.462;2024-02-15T03:40:03;9.70;99.90
8463;DHT22;4268;52.506;13.462;2024-02-15T03:42:30;9.70;99.90
8463;DHT22;4268;52.506;13.462;2024-02-15T03:44:55;9.70;99.90
8463;DHT22;4268;52.506;13.462;2024-02-15T03:47:21;9.70;99.90
8463;DHT22;4268;52.506;13.462;2024-02-15T03:49:47;9.70;99.90
8463;DHT22;4268;52.506;13.462;2024-02-15T03:52:12;9.70;99.90
8463;DHT22;4268;52.506;13.462;2024-02-15T03:54:38;9.70;99.90
8463;DHT22;4268;52.506;13.462;2024-02-15T03:57:04;9.70;99.90
8463;DHT22;4268;52.506;13.462;2024-02-15T03:59:32;9.70;99.90
8463;DHT22;4268;52.506;13.462;2024-02-15T04:01:57;9.70;99.90
8463;DHT22;4268;52.506;13.462;2024-02-15T04:04:23;9.70;99.90
8463;DHT22;4268;52.506;13.462;2024-02-15T04:06:49;9.70;99.90
8463;DHT22;4268;52.506;13.462;2024-02-15T04:09:15;9.70;99.90
8463;DHT22;4268;52.506;13.462;2024-02-15T04:11:40;9.70;99.90
8463;DHT22;4268;52.506;13.462;2024-02-15T04:14:06;9.70;99.90
8463;DHT22;4268;52.506;13.462;2024-02-15T04:16:31;9.70;99.90
8463;DHT22;4268;52.506;13.462;2024-02-15T04:18:58;9.70;99.90
8463;DHT22;4268;52.506;13.462;2024-02-15T04:21:24;9.60;99.90
8463;DHT22;4268;52.506;13.462;2024-02-15T04:23:50;9.70;99.90
8463;DHT22;4268;52.506;13.462;2024-02-15T04:26:17;9.70;99.90
8463;DHT22;4268;52.506;13.462;2024-02-15T04:28:45;9.70;99.90
8463;DHT22;4268;52.506;13.462;2024-02-15T04:31:13;9.70;99.90
8463;DHT22;4268;52.506;13.462;2024-02-15T04:33:40;9.70;99.90
8463;DHT22;4268;52.506;13.462;2024-02-15T04:36:06;9.70;99.90
8463;DHT22;4268;52.506;13.462;2024-02-15T04:38:32;9.70;99.90
8463;DHT22;4268;52.506;13.462;2024-02-15T04:41:01;9.70;99.90
8463;DHT22;4268;52.506;13.462;2024-02-15T04:43:27;9.70;99.90
8463;DHT22;4268;52.506;13.462;2024-02-15T04:45:54;9.70;99.90
8463;DHT22;4268;52.506;13.462;2024-02-15T04:48:19;9.70;99.90
8463;DHT22;4268;52.506;13.462;2024-02-15T04:50:45;9.70;99.90
8463;DHT22;4268;52.506;13.462;2024-02-15T04:53:11;9.70;99.90
8463;DHT22;4268;52.506;13.462;2024-02-15T04:55:36;9.70;99.90
8463;DHT22;4268;52.506;13.462;2024-02-15T04:58:02;9.70;99.90
8463;DHT22;4268;52.506;13.462;2024-02-15T05:00:29;9.70;99.90
8463;DHT22;4268;52.506;13.462;2024-02-15T05:02:55;9.70;99.90
8463;DHT22;4268;52.506;13.462;2024-02-15T05:05:21;9.70;99.90
8463;DHT22;4268;52.506;13.462;2024-02-15T05:07:47;9.70;99.90
8463;DHT22;4268;52.506;13.462;2024-02-15T05:10:14;9.70;99.90
8463;DHT22;4268;52.506;13.462;2024-02-15T05:12:41;9.70;99.90
8463;DHT22;4268;52.506;13.462;2024-02-15T05:15:08;9.70;99.90
8463;DHT22;4268;52.506;13.462;2024-02-15T05:17:37;9.70;99.90
8463;DHT22;4268;52.506;13.462;2024-02-15T05:20:09;9.80;99.90
8463;DHT22;4268;52.506;13.462;2024-02-15T05:22:39;9.80;99.90
8463;DHT22;4268;52.506;13.462;2024-02-15T05:25:06;9.80;99.90
8463;DHT22;4268;52.506;13.462;2024-02-15T05:27:33;9.80;99.90
8463;DHT22;4268;52.506;13.462;2024-02-15T05:29:59;9.80;99.90
8463;DHT22;4268;52.506;13.462;2024-02-15T05:32:24;9.80;99.90
8463;DHT22;4268;52.506;13.462;2024-02-15T05:34:51;9.80;99.90
8463;DHT22;4268;52.506;13.462;2024-02-15T05:37:20;9.90;99.90
8463;DHT22;4268;52.506;13.462;2024-02-15T05:39:45;9.80;99.90
8463;DHT22;4268;52.506;13.462;2024-02-15T05:42:11;9.90;99.90
8463;DHT22;4268;52.506;13.462;2024-02-15T05:44:37;9.90;99.90
8463;DHT22;4268;52.506;13.462;2024-02-15T05:47:03;9.90;99.90
8463;DHT22;4268;52.506;13.462;2024-02-15T05:49:29;9.90;99.90
8463;DHT22;4268;52.506;13.462;2024-02-15T05:51:54;9.90;99.90
8463;DHT22;4268;52.506;13.462;2024-02-15T05:54:20;9.90;99.90
8463;DHT22;4268;52.506;13.462;2024-02-15T05:56:48;9.90;99.90
8463;DHT22;4268;52.506;13.462;2024-02-15T05:59:19;9.90;99.90
8463;DHT22;4268;52.506;13.462;2024-02-15T06:01:46;9.90;99.90
8463;DHT22;4268;52.506;13.462;2024-02-15T06:04:14;9.90;99.90
8463;DHT22;4268;52.506;13.462;2024-02-15T06:06:39;9.90;99.90
8463;DHT22;4268;52.506;13.462;2024-02-15T06:09:05;9.90;99.90
8463;DHT22;4268;52.506;13.462;2024-02-15T06:11:30;9.90;99.90
8463;DHT22;4268;52.506;13.462;2024-02-15T06:13:56;9.90;99.90
8463;DHT22;4268;52.506;13.462;2024-02-15T06:16:22;10.00;99.90
8463;DHT22;4268;52.506;13.462;2024-02-15T06:18:47;10.00;99.90
8463;DHT22;4268;52.506;13.462;2024-02-15T06:21:13;10.00;99.90
8463;DHT22;4268;52.506;13.462;2024-02-15T06:23:39;10.10;99.90
8463;DHT22;4268;52.506;13.462;2024-02-15T06:26:04;10.00;99.90
8463;DHT22;4268;52.506;13.462;2024-02-15T06:28:30;10.00;99.90
8463;DHT22;4268;52.506;13.462;2024-02-15T06:31:14;10.00;99.90
8463;DHT22;4268;52.506;13.462;2024-02-15T06:33:59;10.00;99.90
8463;DHT22;4268;52.506;13.462;2024-02-15T06:36:47;10.00;99.90
8463;DHT22;4268;52.506;13.462;2024-02-15T06:39:32;10.10;99.90
8463;DHT22;4268;52.506;13.462;2024-02-15T06:42:13;10.10;99.90
8463;DHT22;4268;52.506;13.462;2024-02-15T06:44:44;10.10;99.90
8463;DHT22;4268;52.506;13.462;2024-02-15T06:47:09;10.10;99.90
8463;DHT22;4268;52.506;13.462;2024-02-15T06:49:37;10.10;99.90
8463;DHT22;4268;52.506;13.462;2024-02-15T06:52:07;10.10;99.90
8463;DHT22;4268;52.506;13.462;2024-02-15T06:54:38;10.10;99.90
8463;DHT22;4268;52.506;13.462;2024-02-15T06:57:04;10.20;99.90
8463;DHT22;4268;52.506;13.462;2024-02-15T06:59:30;10.10;99.90
8463;DHT22;4268;52.506;13.462;2024-02-15T07:02:00;10.10;99.90
8463;DHT22;4268;52.506;13.462;2024-02-15T07:04:26;10.20;99.90
8463;DHT22;4268;52.506;13.462;2024-02-15T07:06:52;10.20;99.90
8463;DHT22;4268;52.506;13.462;2024-02-15T07:09:20;10.20;99.90
8463;DHT22;4268;52.506;13.462;2024-02-15T07:11:46;10.20;99.90
8463;DHT22;4268;52.506;13.462;2024-02-15T07:14:13;10.20;99.90
8463;DHT22;4268;52.506;13.462;2024-02-15T07:16:39;10.20;99.90
8463;DHT22;4268;52.506;13.462;2024-02-15T07:19:04;10.30;99.90
8463;DHT22;4268;52.506;13.462;2024-02-15T07:21:31;10.30;99.90
8463;DHT22;4268;52.506;13.462;2024-02-15T07:23:57;10.30;99.90
8463;DHT22;4268;52.506;13.462;2024-02-15T07:26:26;10.30;99.90
8463;DHT22;4268;52.506;13.462;2024-02-15T07:28:54;10.30;99.90
8463;DHT22;4268;52.506;13.462;2024-02-15T07:31:21;10.30;99.90
8463;DHT22;4268;52.506;13.462;2024-02-15T07:33:48;10.30;99.90
8463;DHT22;4268;52.506;13.462;2024-02-15T07:36:17;10.50;99.90
8463;DHT22;4268;52.506;13.462;2024-02-15T07:38:43;10.60;99.90
8463;DHT22;4268;52.506;13.462;2024-02-15T07:41:10;10.90;99.90
8463;DHT22;4268;52.506;13.462;2024-02-15T07:43:36;10.90;99.90
8463;DHT22;4268;52.506;13.462;2024-02-15T07:46:01;10.90;99.90
8463;DHT22;4268;52.506;13.462;2024-02-15T07:48:28;10.90;99.90
8463;DHT22;4268;52.506;13.462;2024-02-15T07:50:53;10.90;99.90
8463;DHT22;4268;52.506;13.462;2024-02-15T07:53:20;10.90;99.90
8463;DHT22;4268;52.506;13.462;2024-02-15T07:55:45;11.10;99.90
8463;DHT22;4268;52.506;13.462;2024-02-15T07:58:11;11.20;99.90
8463;DHT22;4268;52.506;13.462;2024-02-15T08:00:38;11.30;99.90
8463;DHT22;4268;52.506;13.462;2024-02-15T08:03:03;11.30;99.90
8463;DHT22;4268;52.506;13.462;2024-02-15T08:05:29;11.30;99.90
8463;DHT22;4268;52.506;13.462;2024-02-15T08:07:54;11.30;99.90
8463;DHT22;4268;52.506;13.462;2024-02-15T08:10:22;11.40;99.90
8463;DHT22;4268;52.506;13.462;2024-02-15T08:12:48;11.50;99.90
8463;DHT22;4268;52.506;13.462;2024-02-15T08:15:17;11.50;99.90
8463;DHT22;4268;52.506;13.462;2024-02-15T08:17:44;11.60;99.90
8463;DHT22;4268;52.506;13.462;2024-02-15T08:20:13;11.70;99.90
8463;DHT22;4268;52.506;13.462;2024-02-15T08:22:40;11.70;99.90
8463;DHT22;4268;52.506;13.462;2024-02-15T08:25:10;11.70;99.90
8463;DHT22;4268;52.506;13.462;2024-02-15T08:27:43;11.60;99.90
8463;DHT22;4268;52.506;13.462;2024-02-15T08:30:12;11.70;99.90
8463;DHT22;4268;52.506;13.462;2024-02-15T08:32:39;11.60;99.90
8463;DHT22;4268;52.506;13.462;2024-02-15T08:35:16;11.70;99.90
8463;DHT22;4268;52.506;13.462;2024-02-15T08:37:41;11.70;99.90
8463;DHT22;4268;52.506;13.462;2024-02-15T08:40:09;11.60;99.90
8463;DHT22;4268;52.506;13.462;2024-02-15T08:42:43;11.60;99.90
8463;DHT22;4268;52.506;13.462;2024-02-15T08:45:10;11.60;99.90
8463;DHT22;4268;52.506;13.462;2024-02-15T08:47:40;11.60;99.90
8463;DHT22;4268;52.506;13.462;2024-02-15T08:50:08;11.60;99.90
8463;DHT22;4268;52.506;13.462;2024-02-15T08:52:37;11.60;99.90
8463;DHT22;4268;52.506;13.462;2024-02-15T08:55:06;11.60;99.90
8463;DHT22;4268;52.506;13.462;2024-02-15T08:57:33;11.60;99.90
8463;DHT22;4268;52.506;13.462;2024-02-15T08:59:59;11.60;99.90
8463;DHT22;4268;52.506;13.462;2024-02-15T09:02:24;11.70;99.90
8463;DHT22;4268;52.506;13.462;2024-02-15T09:04:50;11.70;99.90
8463;DHT22;4268;52.506;13.462;2024-02-15T09:07:15;11.80;99.90
8463;DHT22;4268;52.506;13.462;2024-02-15T09:09:41;11.90;99.90
8463;DHT22;4268;52.506;13.462;2024-02-15T09:12:07;12.00;99.90
8463;DHT22;4268;52.506;13.462;2024-02-15T09:14:33;12.00;99.90
8463;DHT22;4268;52.506;13.462;2024-02-15T09:17:00;12.10;99.90
8463;DHT22;4268;52.506;13.462;2024-02-15T09:19:25;12.10;99.90
8463;DHT22;4268;52.506;13.462;2024-02-15T09:21:51;12.20;99.90
8463;DHT22;4268;52.506;13.462;2024-02-15T09:24:16;12.30;99.90
8463;DHT22;4268;52.506;13.462;2024-02-15T09:26:42;12.50;99.90
8463;DHT22;4268;52.506;13.462;2024-02-15T09:29:09;12.60;99.90
8463;DHT22;4268;52.506;13.462;2024-02-15T09:31:35;12.70;99.90
8463;DHT22;4268;52.506;13.462;2024-02-15T09:34:01;12.80;99.90
8463;DHT22;4268;52.506;13.462;2024-02-15T09:36:34;12.80;99.90
8463;DHT22;4268;52.506;13.462;2024-02-15T09:38:59;12.80;99.90
8463;DHT22;4268;52.506;13.462;2024-02-15T09:41:25;12.60;99.90
8463;DHT22;4268;52.506;13.462;2024-02-15T09:43:50;12.60;99.90
8463;DHT22;4268;52.506;13.462;2024-02-15T09:46:17;12.40;99.90
8463;DHT22;4268;52.506;13.462;2024-02-15T09:48:52;12.30;99.90
8463;DHT22;4268;52.506;13.462;2024-02-15T09:51:25;12.30;99.90
8463;DHT22;4268;52.506;13.462;2024-02-15T09:53:51;12.20;99.90
8463;DHT22;4268;52.506;13.462;2024-02-15T09:56:17;12.20;99.90
8463;DHT22;4268;52.506;13.462;2024-02-15T09:58:44;12.20;99.90
8463;DHT22;4268;52.506;13.462;2024-02-15T10:01:10;12.20;99.90
8463;DHT22;4268;52.506;13.462;2024-02-15T10:03:37;12.30;99.90
8463;DHT22;4268;52.506;13.462;2024-02-15T10:06:05;12.30;99.90
8463;DHT22;4268;52.506;13.462;2024-02-15T10:08:31;12.30;99.90
8463;DHT22;4268;52.506;13.462;2024-02-15T10:11:07;12.30;99.90
8463;DHT22;4268;52.506;13.462;2024-02-15T10:13:36;12.30;99.90
8463;DHT22;4268;52.506;13.462;2024-02-15T10:16:15;12.30;99.90
8463;DHT22;4268;52.506;13.462;2024-02-15T10:18:41;12.30;99.90
8463;DHT22;4268;52.506;13.462;2024-02-15T10:21:06;12.40;99.90
8463;DHT22;4268;52.506;13.462;2024-02-15T10:23:32;12.50;99.90
8463;DHT22;4268;52.506;13.462;2024-02-15T10:25:57;12.50;99.90
8463;DHT22;4268;52.506;13.462;2024-02-15T10:28:24;12.60;99.90
8463;DHT22;4268;52.506;13.462;2024-02-15T10:30:50;12.60;99.90
8463;DHT22;4268;52.506;13.462;2024-02-15T10:33:20;12.70;99.90
8463;DHT22;4268;52.506;13.462;2024-02-15T10:36:07;12.70;99.90
8463;DHT22;4268;52.506;13.462;2024-02-15T10:38:33;12.70;99.90
8463;DHT22;4268;52.506;13.462;2024-02-15T10:41:06;12.70;99.90
8463;DHT22;4268;52.506;13.462;2024-02-15T10:43:35;12.70;99.90
8463;DHT22;4268;52.506;13.462;2024-02-15T10:46:03;12.60;99.90
8463;DHT22;4268;52.506;13.462;2024-02-15T10:48:29;12.70;99.90
8463;DHT22;4268;52.506;13.462;2024-02-15T10:50:57;12.70;99.90
8463;DHT22;4268;52.506;13.462;2024-02-15T10:53:28;12.70;99.90
8463;DHT22;4268;52.506;13.462;2024-02-15T10:56:05;12.70;99.90
8463;DHT22;4268;52.506;13.462;2024-02-15T10:58:43;12.70;99.90
8463;DHT22;4268;52.506;13.462;2024-02-15T11:01:12;12.70;99.90
8463;DHT22;4268;52.506;13.462;2024-02-15T11:03:50;12.80;99.90
8463;DHT22;4268;52.506;13.462;2024-02-15T11:06:20;12.80;99.90
8463;DHT22;4268;52.506;13.462;2024-02-15T11:08:47;12.90;99.90
8463;DHT22;4268;52.506;13.462;2024-02-15T11:11:14;12.90;99.90
8463;DHT22;4268;52.506;13.462;2024-02-15T11:13:40;13.00;99.90
8463;DHT22;4268;52.506;13.462;2024-02-15T11:16:07;13.10;99.90
8463;DHT22;4268;52.506;13.462;2024-02-15T11:18:47;13.20;99.90
8463;DHT22;4268;52.506;13.462;2024-02-15T11:21:55;13.50;99.90
8463;DHT22;4268;52.506;13.462;2024-02-15T11:24:28;13.60;99.90
8463;DHT22;4268;52.506;13.462;2024-02-15T11:26:58;13.80;99.90
8463;DHT22;4268;52.506;13.462;2024-02-15T11:29:49;13.80;99.90
8463;DHT22;4268;52.506;13.462;2024-02-15T11:32:41;13.80;99.90
8463;DHT22;4268;52.506;13.462;2024-02-15T11:35:25;13.70;99.90
8463;DHT22;4268;52.506;13.462;2024-02-15T11:40:16;13.70;99.90
8463;DHT22;4268;52.506;13.462;2024-02-15T11:42:43;13.70;99.90
8463;DHT22;4268;52.506;13.462;2024-02-15T11:45:09;13.70;99.90
8463;DHT22;4268;52.506;13.462;2024-02-15T11:47:39;13.60;99.90
8463;DHT22;4268;52.506;13.462;2024-02-15T11:50:11;13.50;99.90
8463;DHT22;4268;52.506;13.462;2024-02-15T11:52:40;13.40;99.90
8463;DHT22;4268;52.506;13.462;2024-02-15T11:55:07;13.40;99.90
8463;DHT22;4268;52.506;13.462;2024-02-15T11:57:41;13.30;99.90
8463;DHT22;4268;52.506;13.462;2024-02-15T12:00:28;13.30;99.90
8463;DHT22;4268;52.506;13.462;2024-02-15T12:03:14;13.20;99.90
8463;DHT22;4268;52.506;13.462;2024-02-15T12:05:59;13.20;99.90
8463;DHT22;4268;52.506;13.462;2024-02-15T12:08:48;13.10;99.90
8463;DHT22;4268;52.506;13.462;2024-02-15T12:11:33;13.10;99.90
8463;DHT22;4268;52.506;13.462;2024-02-15T12:14:18;13.10;99.90
8463;DHT22;4268;52.506;13.462;2024-02-15T12:17:04;13.10;99.90
8463;DHT22;4268;52.506;13.462;2024-02-15T12:19:50;13.00;99.90
8463;DHT22;4268;52.506;13.462;2024-02-15T12:22:21;13.00;99.90
8463;DHT22;4268;52.506;13.462;2024-02-15T12:24:57;13.00;99.90
8463;DHT22;4268;52.506;13.462;2024-02-15T12:27:23;13.00;99.90
8463;DHT22;4268;52.506;13.462;2024-02-15T12:29:56;13.10;99.90
8463;DHT22;4268;52.506;13.462;2024-02-15T12:32:23;13.10;99.90
8463;DHT22;4268;52.506;13.462;2024-02-15T12:34:49;13.10;99.90
8463;DHT22;4268;52.506;13.462;2024-02-15T12:37:18;13.20;99.90
8463;DHT22;4268;52.506;13.462;2024-02-15T12:39:43;13.30;99.90
8463;DHT22;4268;52.506;13.462;2024-02-15T12:42:09;13.30;99.90
8463;DHT22;4268;52.506;13.462;2024-02-15T12:44:35;13.40;99.90
8463;DHT22;4268;52.506;13.462;2024-02-15T12:47:00;13.40;99.90
8463;DHT22;4268;52.506;13.462;2024-02-15T12:49:29;13.40;99.90
8463;DHT22;4268;52.506;13.462;2024-02-15T12:55:17;13.70;99.90
8463;DHT22;4268;52.506;13.462;2024-02-15T12:57:47;13.90;99.90
8463;DHT22;4268;52.506;13.462;2024-02-15T13:00:17;14.00;99.90
8463;DHT22;4268;52.506;13.462;2024-02-15T13:02:47;13.90;99.90
8463;DHT22;4268;52.506;13.462;2024-02-15T13:05:17;14.00;99.90
8463;DHT22;4268;52.506;13.462;2024-02-15T13:07:50;14.00;99.90
8463;DHT22;4268;52.506;13.462;2024-02-15T13:10:16;14.00;99.90
8463;DHT22;4268;52.506;13.462;2024-02-15T13:12:42;14.00;99.90
8463;DHT22;4268;52.506;13.462;2024-02-15T13:15:09;14.00;99.90
8463;DHT22;4268;52.506;13.462;2024-02-15T13:17:40;14.00;99.90
8463;DHT22;4268;52.506;13.462;2024-02-15T13:20:06;14.00;99.90
8463;DHT22;4268;52.506;13.462;2024-02-15T13:22:37;14.10;99.90
8463;DHT22;4268;52.506;13.462;2024-02-15T13:25:07;14.10;99.90
8463;DHT22;4268;52.506;13.462;2024-02-15T13:27:34;14.10;99.90
8463;DHT22;4268;52.506;13.462;2024-02-15T13:30:00;14.00;99.90
8463;DHT22;4268;52.506;13.462;2024-02-15T13:32:26;14.00;99.90
8463;DHT22;4268;52.506;13.462;2024-02-15T13:34:51;14.00;99.90
8463;DHT22;4268;52.506;13.462;2024-02-15T13:37:19;14.00;99.90
8463;DHT22;4268;52.506;13.462;2024-02-15T13:39:49;14.00;99.90
8463;DHT22;4268;52.506;13.462;2024-02-15T13:42:15;14.00;99.90
8463;DHT22;4268;52.506;13.462;2024-02-15T13:44:44;14.00;99.90
8463;DHT22;4268;52.506;13.462;2024-02-15T13:47:10;14.00;99.90
8463;DHT22;4268;52.506;13.462;2024-02-15T13:49:37;14.00;99.90
8463;DHT22;4268;52.506;13.462;2024-02-15T13:52:03;14.00;99.90
8463;DHT22;4268;52.506;13.462;2024-02-15T13:54:32;14.00;99.90
8463;DHT22;4268;52.506;13.462;2024-02-15T13:57:02;14.00;99.90
8463;DHT22;4268;52.506;13.462;2024-02-15T13:59:28;14.00;99.90
8463;DHT22;4268;52.506;13.462;2024-02-15T14:01:55;14.00;99.90
8463;DHT22;4268;52.506;13.462;2024-02-15T14:04:20;13.90;99.90
8463;DHT22;4268;52.506;13.462;2024-02-15T14:06:47;14.00;99.90
8463;DHT22;4268;52.506;13.462;2024-02-15T14:09:12;13.90;99.90
8463;DHT22;4268;52.506;13.462;2024-02-15T14:11:38;13.90;99.90
8463;DHT22;4268;52.506;13.462;2024-02-15T14:14:05;13.90;99.90
8463;DHT22;4268;52.506;13.462;2024-02-15T14:16:31;13.80;99.90
8463;DHT22;4268;52.506;13.462;2024-02-15T14:18:56;13.80;99.90
8463;DHT22;4268;52.506;13.462;2024-02-15T14:21:22;13.80;99.90
8463;DHT22;4268;52.506;13.462;2024-02-15T14:23:47;13.80;99.90
8463;DHT22;4268;52.506;13.462;2024-02-15T14:26:13;13.80;99.90
8463;DHT22;4268;52.506;13.462;2024-02-15T14:28:39;13.80;99.90
8463;DHT22;4268;52.506;13.462;2024-02-15T14:31:07;13.80;99.90
8463;DHT22;4268;52.506;13.462;2024-02-15T14:33:51;13.80;99.90
8463;DHT22;4268;52.506;13.462;2024-02-15T14:36:17;13.60;99.90
8463;DHT22;4268;52.506;13.462;2024-02-15T14:38:43;13.60;99.90
8463;DHT22;4268;52.506;13.462;2024-02-15T14:41:12;13.60;99.90
8463;DHT22;4268;52.506;13.462;2024-02-15T14:43:38;13.60;99.90
8463;DHT22;4268;52.506;13.462;2024-02-15T14:46:04;13.60;99.90
8463;DHT22;4268;52.506;13.462;2024-02-15T14:48:34;13.50;99.90
8463;DHT22;4268;52.506;13.462;2024-02-15T14:50:59;13.50;99.90
8463;DHT22;4268;52.506;13.462;2024-02-15T14:53:25;13.50;99.90
8463;DHT22;4268;52.506;13.462;2024-02-15T14:55:52;13.40;99.90
8463;DHT22;4268;52.506;13.462;2024-02-15T14:58:19;13.30;99.90
8463;DHT22;4268;52.506;13.462;2024-02-15T15:00:45;13.40;99.90
8463;DHT22;4268;52.506;13.462;2024-02-15T15:03:11;13.40;99.90
8463;DHT22;4268;52.506;13.462;2024-02-15T15:05:39;13.40;99.90
8463;DHT22;4268;52.506;13.462;2024-02-15T15:08:23;13.40;99.90
8463;DHT22;4268;52.506;13.462;2024-02-15T15:11:07;13.40;99.90
8463;DHT22;4268;52.506;13.462;2024-02-15T15:13:51;13.30;99.90
8463;DHT22;4268;52.506;13.462;2024-02-15T15:16:17;13.30;99.90
8463;DHT22;4268;52.506;13.462;2024-02-15T15:18:46;13.30;99.90
8463;DHT22;4268;52.506;13.462;2024-02-15T15:21:13;13.30;99.90
8463;DHT22;4268;52.506;13.462;2024-02-15T15:23:39;13.20;99.90
8463;DHT22;4268;52.506;13.462;2024-02-15T15:26:05;13.20;99.90
8463;DHT22;4268;52.506;13.462;2024-02-15T15:28:31;13.20;99.90
8463;DHT22;4268;52.506;13.462;2024-02-15T15:30:57;13.20;99.90
8463;DHT22;4268;52.506;13.462;2024-02-15T15:33:22;13.10;99.90
8463;DHT22;4268;52.506;13.462;2024-02-15T15:35:49;13.20;99.90
8463;DHT22;4268;52.506;13.462;2024-02-15T15:38:14;13.20;99.90
8463;DHT22;4268;52.506;13.462;2024-02-15T15:40:40;13.20;99.90
8463;DHT22;4268;52.506;13.462;2024-02-15T15:43:07;13.10;99.90
8463;DHT22;4268;52.506;13.462;2024-02-15T15:45:36;13.10;99.90
8463;DHT22;4268;52.506;13.462;2024-02-15T15:48:01;13.10;99.90
8463;DHT22;4268;52.506;13.462;2024-02-15T15:50:29;13.00;99.90
8463;DHT22;4268;52.506;13.462;2024-02-15T15:53:01;13.00;99.90
8463;DHT22;4268;52.506;13.462;2024-02-15T15:55:26;13.00;99.90
8463;DHT22;4268;52.506;13.462;2024-02-15T15:57:52;12.90;99.90
8463;DHT22;4268;52.506;13.462;2024-02-15T16:00:18;12.90;99.90
8463;DHT22;4268;52.506;13.462;2024-02-15T16:02:45;12.90;99.90